Time;durP1;ratioP1;P1;durP2;ratioP2;P2;SDS_P1;SDS_P2;PMS_P1;PMS_P2;Temp;Humidity;BMP_temperature;BMP_pressure;BME280_temperature;BME280_humidity;BME280_pressure;Samples;Min_cycle;Max_cycle;Signal;HPM_P1;HPM_P2
2022/11/14 00:00:47;;;;;;;30.10;20.90;;;;;;;12.35;81.99;101976.13;4893906;29;20051;-81
2022/11/14 00:03:14;;;;;;;29.55;21.35;;;;;;;12.10;82.49;101930.03;4893725;29;20060;-81
2022/11/14 00:05:44;;;;;;;26.42;20.25;;;;;;;12.32;82.97;101960.38;4896724;29;20135;-80
2022/11/14 00:08:17;;;;;;;28.42;19.85;;;;;;;12.55;83.32;102002.13;4896492;29;20130;-81
2022/11/14 00:10:56;;;;;;;29.33;21.13;;;;;;;12.27;83.76;101951.91;4898639;29;20568;-82
2022/11/14 00:13:22;;;;;;;29.70;20.83;;;;;;;12.12;82.84;101928.09;4916195;29;20066;-81
2022/11/14 00:15:55;;;;;;;28.38;19.73;;;;;;;12.59;83.23;102003.59;4921963;28;20524;-81
2022/11/14 00:18:22;;;;;;;27.55;20.10;;;;;;;12.51;83.42;101992.66;4917187;29;20531;-79
2022/11/14 00:20:54;;;;;;;28.35;20.85;;;;;;;12.28;83.32;101943.81;4913540;29;20114;-83
2022/11/14 00:23:23;;;;;;;31.60;21.23;;;;;;;12.57;82.61;102000.22;4917022;28;20150;-80
2022/11/14 00:25:52;;;;;;;35.03;21.20;;;;;;;12.58;82.22;101995.72;4917262;29;20055;-81
2022/11/14 00:28:18;;;;;;;35.90;21.70;;;;;;;12.38;82.33;101960.78;4922026;28;20052;-81
2022/11/14 00:30:50;;;;;;;28.08;19.92;;;;;;;12.49;81.23;101975.09;4917404;28;20057;-81
2022/11/14 00:33:19;;;;;;;30.98;22.85;;;;;;;12.26;80.67;101935.06;4920039;29;20432;-80
2022/11/14 00:35:53;;;;;;;29.85;20.35;;;;;;;12.18;80.62;101927.66;4916500;29;20567;-80
2022/11/14 00:38:21;;;;;;;31.88;23.15;;;;;;;12.61;80.95;101988.34;4913987;29;20047;-81
2022/11/14 00:40:52;;;;;;;30.08;21.00;;;;;;;12.06;80.46;101891.28;4901475;29;20329;-80
2022/11/14 00:43:26;;;;;;;31.10;20.55;;;;;;;12.63;80.58;101984.72;4898567;29;20601;-82
2022/11/14 00:45:54;;;;;;;27.33;20.50;;;;;;;12.65;81.18;101988.97;4901250;29;20055;-82
2022/11/14 00:48:20;;;;;;;29.60;20.05;;;;;;;12.47;81.08;101969.88;4894413;29;20060;-80
2022/11/14 00:50:47;;;;;;;43.47;21.92;;;;;;;12.47;81.26;101963.72;4893483;29;20458;-80
2022/11/14 00:53:14;;;;;;;27.83;21.20;;;;;;;12.63;82.00;101996.22;4893667;29;20512;-80
2022/11/14 00:55:46;;;;;;;27.63;20.42;;;;;;;12.42;82.13;101961.38;4901233;29;20052;-81
2022/11/14 00:58:13;;;;;;;;;;;;;;;12.58;82.99;101999.22;4899023;29;20199;-81
2022/11/14 01:00:39;;;;;;;25.77;18.85;;;;;;;11.93;82.53;101890.53;4899703;29;20274;-83
2022/11/14 01:03:06;;;;;;;27.02;19.75;;;;;;;12.30;82.37;101952.50;4911198;29;20658;-81
2022/11/14 01:05:47;;;;;;;27.90;20.85;;;;;;;12.61;82.34;102004.31;4893798;29;20365;-79
2022/11/14 01:08:15;;;;;;;25.23;20.05;;;;;;;12.46;81.70;101967.34;4897631;29;20965;-81
2022/11/14 01:10:49;;;;;;;24.25;18.48;;;;;;;12.60;81.04;101994.66;4895187;29;20055;-80
2022/11/14 01:13:26;;;;;;;32.90;18.27;;;;;;;12.52;82.51;101975.72;4895751;29;20551;-80
2022/11/14 01:15:53;;;;;;;28.23;19.85;;;;;;;12.56;82.82;101977.19;4896040;29;20087;-83
2022/11/14 01:18:20;;;;;;;26.27;21.15;;;;;;;12.41;82.22;101959.69;4894738;29;20124;-82
2022/11/14 01:20:48;;;;;;;30.02;20.92;;;;;;;12.59;81.50;101994.75;4895541;29;20231;-83
2022/11/14 01:23:15;;;;;;;31.70;22.13;;;;;;;12.48;81.74;101963.59;4896193;29;20446;-82
2022/11/14 01:25:43;;;;;;;33.30;22.92;;;;;;;12.42;81.65;101957.88;4897314;29;20130;-82
2022/11/14 01:28:15;;;;;;;32.90;22.55;;;;;;;12.59;82.04;101978.75;4894869;29;20171;-82
2022/11/14 01:30:44;;;;;;;34.58;24.02;;;;;;;12.57;81.85;101964.72;4893436;29;20056;-82
2022/11/14 01:33:12;;;;;;;37.35;26.08;;;;;;;12.60;82.27;101970.66;4895696;29;20055;-82
2022/11/14 01:35:39;;;;;;;40.40;26.70;;;;;;;12.11;81.44;101886.50;4899508;29;20059;-82
2022/11/14 01:38:15;;;;;;;37.45;24.63;;;;;;;11.57;80.80;101798.28;4894795;29;20515;-82
2022/11/14 01:40:44;;;;;;;36.28;24.85;;;;;;;12.61;79.77;101977.69;4896094;29;20693;-81
2022/11/14 01:43:26;;;;;;;33.60;23.80;;;;;;;12.67;80.14;101978.19;4894472;29;20062;-81
2022/11/14 01:46:17;;;;;;;42.80;26.13;;;;;;;12.77;80.23;101985.38;4894062;29;20059;-82
2022/11/14 01:48:49;;;;;;;37.88;24.58;;;;;;;12.73;79.94;101975.06;4895236;29;20566;-81
2022/11/14 01:51:19;;;;;;;;;;;;;;;12.67;80.19;101978.19;4897036;29;20055;-80
2022/11/14 01:53:52;;;;;;;35.88;24.92;;;;;;;12.32;80.35;101915.13;4895549;29;20625;-81
2022/11/14 01:56:28;;;;;;;34.22;23.55;;;;;;;11.98;80.45;101851.94;4894621;29;20070;-82
2022/11/14 01:59:01;;;;;;;32.47;24.70;;;;;;;12.43;80.27;101927.59;4892335;29;20051;-82
2022/11/14 02:01:31;;;;;;;33.85;24.00;;;;;;;12.57;80.20;101957.59;4896792;29;20063;-84
2022/11/14 02:04:00;;;;;;;38.05;25.55;;;;;;;12.76;80.84;101981.00;4899799;29;20070;-78
2022/11/14 02:06:36;;;;;;;38.45;25.27;;;;;;;12.66;80.78;101960.50;4899910;29;20135;-82
2022/11/14 02:09:07;;;;;;;36.28;25.92;;;;;;;12.72;80.79;101973.34;4897033;29;20154;-78
2022/11/14 02:11:37;;;;;;;41.00;28.95;;;;;;;12.50;81.56;101959.00;4895344;29;20056;-80
2022/11/14 02:14:04;;;;;;;43.30;28.60;;;;;;;12.48;80.84;101950.28;4893005;29;20336;-80
2022/11/14 02:16:32;;;;;;;42.08;28.25;;;;;;;12.71;80.89;101982.31;4896224;29;20303;-80
2022/11/14 02:18:58;;;;;;;40.38;28.77;;;;;;;12.40;80.70;101926.03;4893551;29;20167;-81
2022/11/14 02:21:26;;;;;;;37.78;28.30;;;;;;;12.27;81.25;101914.63;4896879;29;20497;-82
2022/11/14 02:23:55;;;;;;;40.75;27.58;;;;;;;12.67;81.26;101980.84;4893146;29;20740;-81
2022/11/14 02:26:23;;;;;;;41.30;27.33;;;;;;;12.64;81.70;101971.28;4893749;29;20134;-82
2022/11/14 02:28:50;;;;;;;36.17;26.85;;;;;;;12.69;81.51;101978.91;4890895;29;20044;-82
2022/11/14 02:31:16;;;;;;;39.50;26.98;;;;;;;12.61;81.12;101977.69;4900075;29;20055;-81
2022/11/14 02:33:43;;;;;;;37.85;26.58;;;;;;;12.64;81.44;101979.25;4896191;29;20060;-81
2022/11/14 02:36:10;;;;;;;36.67;25.77;;;;;;;12.28;81.13;101914.50;4896325;29;20047;-82
2022/11/14 02:38:39;;;;;;;39.20;27.45;;;;;;;12.55;80.60;101956.00;4896029;29;20063;-83
2022/11/14 02:41:09;;;;;;;41.15;28.13;;;;;;;12.64;80.63;101962.44;4889887;29;20071;-81
2022/11/14 02:43:36;;;;;;;43.97;28.40;;;;;;;12.69;80.05;101968.25;4887407;29;20277;-79
2022/11/14 02:46:03;;;;;;;38.90;28.42;;;;;;;12.59;80.43;101963.63;4878705;29;20166;-80
2022/11/14 02:48:31;;;;;;;42.03;27.23;;;;;;;12.49;80.56;101941.31;4885884;29;20333;-82
2022/11/14 02:51:00;;;;;;;44.35;28.48;;;;;;;12.55;80.05;101945.34;4892352;29;20059;-81
2022/11/14 02:53:27;;;;;;;45.63;29.10;;;;;;;12.38;80.11;101923.50;4900861;29;20352;-78
2022/11/14 02:55:54;;;;;;;39.85;25.92;;;;;;;12.68;79.51;101971.91;4895029;29;20555;-81
2022/11/14 02:58:20;;;;;;;36.92;26.33;;;;;;;12.52;79.28;101962.38;4892746;29;20524;-80
2022/11/14 03:00:47;;;;;;;43.67;28.75;;;;;;;12.36;80.28;101940.56;4903370;29;20055;-80
2022/11/14 03:03:34;;;;;;;40.67;26.20;;;;;;;12.54;79.94;101971.13;4892931;29;20584;-81
2022/11/14 03:06:03;;;;;;;41.72;27.05;;;;;;;12.54;79.71;101972.94;4891436;29;20438;-81
2022/11/14 03:08:36;;;;;;;40.53;27.08;;;;;;;12.30;79.44;101935.69;4893551;29;20052;-80
2022/11/14 03:11:05;;;;;;;37.53;26.70;;;;;;;12.52;79.96;101974.88;4890140;29;20542;-80
2022/11/14 03:13:34;;;;;;;37.58;26.23;;;;;;;11.94;79.60;101860.28;4896453;29;20063;-81
2022/11/14 03:16:10;;;;;;;36.58;24.85;;;;;;;12.60;79.00;101972.50;4885961;29;20054;-81
2022/11/14 03:18:45;;;;;;;36.08;24.25;;;;;;;12.36;78.69;101940.56;4890840;29;20219;-79
2022/11/14 03:21:18;;;;;;;34.92;25.17;;;;;;;12.46;79.22;101946.88;4893684;29;20552;-81
2022/11/14 03:23:45;;;;;;;37.25;25.58;;;;;;;12.41;79.41;101941.06;4891630;29;20359;-80
2022/11/14 03:26:13;;;;;;;37.85;24.80;;;;;;;12.55;79.33;101972.84;4876720;29;20445;-81
2022/11/14 03:28:41;;;;;;;41.88;26.08;;;;;;;12.51;79.32;101971.34;4892982;29;20051;-80
2022/11/14 03:31:09;;;;;;;36.70;25.92;;;;;;;12.31;79.37;101932.06;4892334;29;20055;-79
2022/11/14 03:33:36;;;;;;;40.33;26.88;;;;;;;12.59;79.65;101979.59;4885988;29;20098;-80
2022/11/14 03:36:07;;;;;;;38.55;27.58;;;;;;;12.56;79.66;101979.84;4891391;29;20442;-80
2022/11/14 03:38:35;;;;;;;39.63;25.42;;;;;;;12.36;78.98;101948.56;4889489;29;20423;-81
2022/11/14 03:41:08;;;;;;;40.53;28.33;;;;;;;12.31;79.28;101948.06;4890887;29;20621;-81
2022/11/14 03:43:35;;;;;;;39.08;27.83;;;;;;;12.34;79.96;101961.13;4890866;29;20439;-81
2022/11/14 03:46:02;;;;;;;41.50;28.25;;;;;;;12.58;80.46;101971.75;4892830;29;20164;-81
2022/11/14 03:48:35;;;;;;;39.47;27.17;;;;;;;12.39;80.00;101954.47;4891912;29;20048;-82
2022/11/14 03:51:05;;;;;;;45.85;28.35;;;;;;;12.42;80.14;101948.06;4889705;29;20130;-80
2022/11/14 03:53:31;;;;;;;44.88;28.65;;;;;;;12.33;79.64;101931.00;4897590;29;20247;-82
2022/11/14 03:55:58;;;;;;;40.50;28.48;;;;;;;12.57;79.79;101965.56;4892002;29;20130;-81
2022/11/14 03:58:25;;;;;;;41.15;28.45;;;;;;;12.50;80.03;101961.69;4891992;29;20538;-79
2022/11/14 04:00:54;;;;;;;43.85;29.38;;;;;;;12.51;79.96;101968.69;4892638;29;20713;-82
2022/11/14 04:03:23;;;;;;;42.05;28.27;;;;;;;12.54;80.09;101971.13;4889032;29;20500;-81
2022/11/14 04:05:50;;;;;;;40.75;28.50;;;;;;;12.52;80.51;101972.19;4893065;29;20653;-81
2022/11/14 04:08:20;;;;;;;41.30;29.15;;;;;;;12.47;80.51;101969.03;4892953;29;20864;-81
2022/11/14 04:10:49;;;;;;;46.42;29.73;;;;;;;12.49;80.22;101973.28;4893918;29;20142;-81
2022/11/14 04:13:16;;;;;;;44.83;29.25;;;;;;;12.35;80.24;101955.66;4897412;29;20492;-81
2022/11/14 04:15:43;;;;;;;42.35;29.30;;;;;;;12.47;80.64;101958.38;4897235;29;20514;-80
2022/11/14 04:18:09;;;;;;;45.58;30.52;;;;;;;12.48;80.57;101970.75;4895413;29;20511;-81
2022/11/14 04:20:36;;;;;;;49.47;30.83;;;;;;;12.44;80.86;101959.47;4897121;29;20060;-82
2022/11/14 04:23:02;;;;;;;47.78;29.92;;;;;;;12.49;80.27;101972.44;4896462;29;20544;-82
2022/11/14 04:25:29;;;;;;;46.90;29.67;;;;;;;12.50;79.94;101964.34;4891054;29;20896;-81
2022/11/14 04:27:56;;;;;;;54.72;31.63;;;;;;;12.33;80.16;101936.31;4893344;29;20055;-81
2022/11/14 04:30:25;;;;;;;40.50;28.70;;;;;;;12.46;80.78;101952.22;4890570;29;20048;-82
2022/11/14 04:32:59;;;;;;;45.65;30.15;;;;;;;12.47;80.98;101959.22;4893355;29;20549;-82
2022/11/14 04:35:26;;;;;;;47.10;30.67;;;;;;;12.16;80.89;101913.63;4892867;29;20509;-81
2022/11/14 04:37:53;;;;;;;42.88;29.25;;;;;;;11.84;80.72;101857.41;4888720;29;20478;-81
2022/11/14 04:40:23;;;;;;;44.72;31.23;;;;;;;11.91;80.92;101863.16;4873666;29;20128;-82
2022/11/14 04:42:52;;;;;;;43.42;30.30;;;;;;;12.27;80.95;101925.28;4876246;29;20052;-79
2022/11/14 04:45:18;;;;;;;45.83;31.73;;;;;;;12.45;80.94;101966.50;4876295;29;20352;-82
2022/11/14 04:47:45;;;;;;;49.10;32.97;;;;;;;12.49;80.99;101951.13;4877916;29;20610;-80
2022/11/14 04:50:12;;;;;;;46.03;31.70;;;;;;;12.53;80.72;101957.94;4890626;29;20462;-81
2022/11/14 04:52:39;;;;;;;47.63;30.95;;;;;;;12.32;80.32;101931.09;4892335;29;20156;-81
2022/11/14 04:55:06;;;;;;;49.25;31.98;;;;;;;12.37;80.81;101947.56;4894247;29;20428;-79
2022/11/14 04:57:32;;;;;;;46.03;32.55;;;;;;;12.39;80.56;101954.47;4901103;29;20498;-79
2022/11/14 04:59:59;;;;;;;50.58;31.95;;;;;;;12.45;80.72;101965.63;4893915;29;20098;-80
2022/11/14 05:02:29;;;;;;;48.35;34.03;;;;;;;12.29;81.13;101936.66;4900042;29;20055;-81
2022/11/14 05:04:55;;;;;;;52.22;34.50;;;;;;;12.41;80.36;101938.41;4895323;29;20440;-80
2022/11/14 05:07:29;;;;;;;54.65;34.97;;;;;;;12.60;80.11;101973.34;4898816;29;20495;-78
2022/11/14 05:09:56;;;;;;;59.97;37.88;;;;;;;12.62;80.16;101973.19;4886567;29;20059;-79
2022/11/14 05:12:22;;;;;;;60.20;40.22;;;;;;;12.49;80.51;101951.13;4879565;29;20239;-80
2022/11/14 05:14:51;;;;;;;56.92;38.08;;;;;;;12.11;79.64;101897.16;4873210;29;20056;-80
2022/11/14 05:17:18;;;;;;;60.92;37.20;;;;;;;12.48;80.18;101962.75;4876241;29;20240;-80
2022/11/14 05:19:45;;;;;;;62.58;38.67;;;;;;;12.16;80.53;101902.97;4880809;29;20059;-81
2022/11/14 05:22:22;;;;;;;61.45;37.90;;;;;;;12.23;81.09;101929.13;4879024;29;20051;-81
2022/11/14 05:24:51;;;;;;;58.95;37.95;;;;;;;12.37;81.10;101952.91;4876181;29;20063;-80
2022/11/14 05:27:18;;;;;;;57.42;36.63;;;;;;;11.98;81.22;101901.66;4876395;29;20978;-80
2022/11/14 05:29:47;;;;;;;60.95;36.67;;;;;;;12.31;81.35;101964.03;4874487;29;20793;-80
2022/11/14 05:32:15;;;;;;;55.80;35.13;;;;;;;12.12;81.67;101927.28;4870861;29;20048;-77
2022/11/14 05:34:42;;;;;;;54.33;35.95;;;;;;;12.03;81.57;101907.50;4880487;29;20051;-81
2022/11/14 05:37:09;;;;;;;55.80;34.25;;;;;;;12.40;81.61;101964.19;4879075;29;20159;-80
2022/11/14 05:39:39;;;;;;;54.17;34.88;;;;;;;12.43;82.16;101978.22;4891752;29;20469;-81
2022/11/14 05:42:05;;;;;;;51.45;35.95;;;;;;;12.37;82.03;101971.53;4891179;28;20307;-81
2022/11/14 05:44:38;;;;;;;53.33;35.83;;;;;;;12.15;82.16;101949.16;4868760;29;20071;-79
2022/11/14 05:47:05;;;;;;;54.63;36.30;;;;;;;11.80;82.43;101905.66;4884458;29;20047;-81
2022/11/14 05:49:31;;;;;;;61.28;37.35;;;;;;;12.14;82.58;101963.47;4876202;29;20969;-79
2022/11/14 05:51:58;;;;;;;54.25;36.28;;;;;;;12.24;82.62;101989.41;4889627;29;20972;-80
2022/11/14 05:54:29;;;;;;;55.33;36.53;;;;;;;12.11;82.22;101961.03;4879001;29;20066;-79
2022/11/14 05:56:55;;;;;;;58.70;36.50;;;;;;;12.21;82.42;101995.81;4902382;29;20056;-81
2022/11/14 05:59:24;;;;;;;51.78;35.95;;;;;;;11.40;82.40;101852.72;4872896;29;20052;-79
2022/11/14 06:01:55;;;;;;;53.58;37.28;;;;;;;12.19;83.11;101990.59;4882837;29;20458;-80
2022/11/14 06:04:22;;;;;;;59.00;36.72;;;;;;;12.21;83.21;101986.94;4856672;29;20489;-79
2022/11/14 06:10:09;;;;;;;56.63;36.20;;;;;;;12.02;82.77;101948.41;4883350;29;20282;-80
2022/11/14 06:12:39;;;;;;;64.63;39.67;;;;;;;11.86;82.40;101926.50;4880897;29;20134;-81
2022/11/14 06:15:07;;;;;;;58.10;37.70;;;;;;;12.17;82.21;101989.84;4861747;29;20044;-80
2022/11/14 06:17:35;;;;;;;63.92;40.78;;;;;;;12.16;82.30;101980.19;4853890;29;20135;-79
2022/11/14 06:20:02;;;;;;;68.25;42.15;;;;;;;12.09;82.56;101978.09;4856299;29;20522;-81
2022/11/14 06:22:29;;;;;;;69.30;41.22;;;;;;;11.94;82.53;101943.63;4877806;29;20414;-79
2022/11/14 06:24:59;;;;;;;71.32;42.53;;;;;;;12.18;82.48;101980.03;4860067;29;20055;-79
2022/11/14 06:27:29;;;;;;;69.07;41.33;;;;;;;11.80;82.22;101905.66;4865953;29;20146;-80
2022/11/14 06:29:55;;;;;;;69.60;42.85;;;;;;;12.06;82.38;101960.50;4864131;29;20066;-80
2022/11/14 06:32:25;;;;;;;68.95;40.95;;;;;;;12.01;82.30;101952.00;4863228;29;20616;-79
2022/11/14 06:34:51;;;;;;;65.88;41.85;;;;;;;12.04;82.75;101964.22;4875770;29;20073;-79
2022/11/14 06:37:18;;;;;;;77.43;45.95;;;;;;;11.92;82.62;101950.03;4883530;29;20058;-79
2022/11/14 06:39:50;;;;;;;72.32;43.13;;;;;;;11.53;82.34;101899.59;4858768;29;20467;-79
2022/11/14 06:42:19;;;;;;;66.53;43.88;;;;;;;12.03;82.69;101975.84;4855628;29;20056;-78
2022/11/14 06:44:45;;;;;;;68.50;42.90;;;;;;;12.06;82.92;101987.09;4862731;29;20166;-80
2022/11/14 06:47:12;;;;;;;72.13;43.65;;;;;;;11.92;83.08;101969.50;4878229;29;20275;-80
2022/11/14 06:49:39;;;;;;;74.55;45.50;;;;;;;11.79;82.66;101959.81;4877310;29;20058;-80
2022/11/14 06:52:06;;;;;;;72.22;44.75;;;;;;;11.79;82.95;101958.00;4875452;29;20193;-79
2022/11/14 06:54:34;;;;;;;79.18;45.58;;;;;;;11.85;83.04;101978.88;4855351;29;20504;-79
2022/11/14 06:57:03;;;;;;;73.13;43.90;;;;;;;11.93;83.23;101986.31;4878202;29;20237;-78
2022/11/14 06:59:30;;;;;;;79.43;44.88;;;;;;;11.72;83.25;101954.97;4889261;29;20153;-78
2022/11/14 07:01:57;;;;;;;79.75;44.80;;;;;;;11.94;83.48;101980.91;4881196;29;20300;-81
2022/11/14 07:04:26;;;;;;;75.75;46.10;;;;;;;11.99;83.39;101985.88;4884023;29;20629;-80
2022/11/14 07:06:56;;;;;;;81.68;45.15;;;;;;;12.09;82.89;101988.72;4868372;29;20495;-80
2022/11/14 07:09:26;;;;;;;76.05;45.72;;;;;;;12.09;82.87;101981.59;4868882;29;20054;-81
2022/11/14 07:11:52;;;;;;;75.72;43.88;;;;;;;11.95;82.91;101952.47;4878970;29;20088;-81
2022/11/14 07:14:19;;;;;;;84.03;46.78;;;;;;;11.96;83.01;101960.31;4879596;28;20056;-79
2022/11/14 07:16:50;;;;;;;74.70;44.97;;;;;;;11.77;83.00;101934.19;4852389;29;20412;-80
2022/11/14 07:19:17;;;;;;;77.70;45.35;;;;;;;12.13;82.06;101988.38;4877628;29;20678;-82
2022/11/14 07:21:44;;;;;;;81.03;47.63;;;;;;;12.21;82.27;102005.59;4876058;29;20454;-81
2022/11/14 07:24:11;;;;;;;77.65;46.85;;;;;;;12.08;82.50;101979.88;4854051;29;20840;-81
2022/11/14 07:26:37;;;;;;;73.57;45.30;;;;;;;11.97;82.13;101971.84;4859194;29;20048;-80
2022/11/14 07:29:04;;;;;;;72.70;44.45;;;;;;;12.22;81.82;102012.63;4862331;29;20888;-79
2022/11/14 07:31:33;;;;;;;78.93;45.22;;;;;;;12.19;82.12;102011.03;4856982;29;20497;-78
2022/11/14 07:34:00;;;;;;;70.50;43.63;;;;;;;12.10;82.56;102004.56;4867402;29;20060;-80
2022/11/14 07:36:29;;;;;;;74.93;44.53;;;;;;;12.11;82.56;102006.28;4876033;29;20047;-80
2022/11/14 07:38:56;;;;;;;71.00;44.33;;;;;;;12.29;82.23;102035.19;4866648;29;20585;-79
2022/11/14 07:41:28;;;;;;;74.47;43.92;;;;;;;12.18;82.15;102031.50;4874187;29;20054;-79
2022/11/14 07:43:55;;;;;;;82.07;46.80;;;;;;;12.19;82.49;102029.69;4875046;29;20781;-79
2022/11/14 07:46:22;;;;;;;78.90;48.47;;;;;;;12.16;82.60;102025.44;4870308;29;20324;-80
2022/11/14 07:48:49;;;;;;;86.85;49.05;;;;;;;12.04;82.35;102007.69;4854143;29;20051;-81
2022/11/14 07:51:24;;;;;;;87.68;49.78;;;;;;;12.12;82.10;102010.63;4873440;29;20440;-82
2022/11/14 07:53:52;;;;;;;87.82;50.60;;;;;;;12.30;82.14;102037.72;4860148;29;20147;-79
2022/11/14 07:56:24;;;;;;;87.10;50.42;;;;;;;12.35;82.23;102056.00;4864888;29;20657;-79
2022/11/14 07:58:51;;;;;;;85.05;48.63;;;;;;;12.21;81.90;102018.91;4886843;29;20332;-81
2022/11/14 08:01:18;;;;;;;86.43;48.53;;;;;;;12.23;81.96;102016.97;4881201;29;20941;-81
2022/11/14 08:03:46;;;;;;;80.75;44.63;;;;;;;12.34;81.67;102041.00;4865188;29;20048;-80
2022/11/14 08:06:16;;;;;;;83.25;49.13;;;;;;;12.35;81.86;102046.22;4855504;29;20576;-80
2022/11/14 08:08:43;;;;;;;82.63;49.75;;;;;;;12.38;81.75;102042.50;4871273;29;20446;-82
2022/11/14 08:11:10;;;;;;;77.03;47.40;;;;;;;12.36;81.69;102036.44;4871949;29;20130;-82
2022/11/14 08:13:37;;;;;;;82.13;47.45;;;;;;;12.32;81.37;102034.94;4881678;29;20091;-81
2022/11/14 08:16:06;;;;;;;79.85;47.45;;;;;;;12.46;81.38;102037.44;4869515;29;20696;-79
2022/11/14 08:18:39;;;;;;;82.65;49.03;;;;;;;12.44;81.11;102028.72;4888101;29;20557;-81
2022/11/14 08:21:08;;;;;;;75.95;44.75;;;;;;;12.23;80.47;101979.69;4893947;29;20051;-81
2022/11/14 08:23:35;;;;;;;79.50;45.05;;;;;;;12.53;80.29;102032.53;4909296;29;20122;-80
2022/11/14 08:26:02;;;;;;;86.03;50.08;;;;;;;12.43;80.42;102005.72;4909337;28;20047;-82
2022/11/14 08:28:28;;;;;;;84.32;46.58;;;;;;;12.54;80.28;102015.56;4908486;28;20357;-80
2022/11/14 08:31:01;;;;;;;85.53;47.20;;;;;;;12.50;79.72;102006.97;4893587;29;20231;-82
2022/11/14 08:33:31;;;;;;;76.20;45.72;;;;;;;12.73;79.23;102036.34;4896793;29;20054;-82
2022/11/14 08:36:02;;;;;;;80.07;43.47;;;;;;;12.63;79.19;102022.03;4899810;29;20055;-81
2022/11/14 08:38:33;;;;;;;72.07;43.65;;;;;;;12.76;79.00;102028.13;4890300;29;20056;-81
2022/11/14 08:41:03;;;;;;;81.13;43.90;;;;;;;12.79;78.42;102035.88;4874014;29;20052;-82
2022/11/14 08:43:31;;;;;;;69.80;42.65;;;;;;;12.75;78.47;102029.09;4873567;29;20370;-82
2022/11/14 08:46:04;;;;;;;80.22;44.65;;;;;;;12.63;78.84;102016.69;4876002;29;20048;-81
2022/11/14 08:48:31;;;;;;;77.00;44.35;;;;;;;12.66;78.60;102005.81;4882895;29;20043;-80
2022/11/14 08:51:04;;;;;;;82.00;44.22;;;;;;;12.80;78.41;102029.59;4895234;29;20056;-80
2022/11/14 08:53:32;;;;;;;81.10;44.97;;;;;;;12.60;78.74;101996.47;4895966;29;20067;-82
2022/11/14 08:56:01;;;;;;;82.90;46.03;;;;;;;12.65;79.38;102009.44;4897313;29;20245;-82
2022/11/14 08:58:36;;;;;;;74.65;43.05;;;;;;;12.97;78.59;102018.50;4899150;29;20459;-81
2022/11/14 09:01:09;;;;;;;78.15;45.47;;;;;;;12.90;77.85;102019.09;4898718;29;20587;-80
2022/11/14 09:03:36;;;;;;;75.60;42.92;;;;;;;12.79;77.79;102002.09;4898711;29;20569;-81
2022/11/14 09:06:03;;;;;;;76.35;45.20;;;;;;;12.89;78.34;102012.03;4892389;29;20059;-81
2022/11/14 09:08:30;;;;;;;75.30;43.50;;;;;;;12.41;77.67;101930.41;4880435;29;20052;-82
2022/11/14 09:11:02;;;;;;;78.28;45.05;;;;;;;12.88;77.80;101994.34;4875759;29;20117;-81
2022/11/14 09:13:33;;;;;;;74.78;42.60;;;;;;;13.01;77.34;102017.28;4885712;29;20514;-82
2022/11/14 09:16:00;;;;;;;70.35;43.85;;;;;;;13.03;77.47;102014.50;4885627;29;20056;-80
2022/11/14 09:18:28;;;;;;;74.55;42.55;;;;;;;12.80;78.17;101987.78;4877255;29;20048;-82
2022/11/14 09:21:03;;;;;;;72.00;41.75;;;;;;;12.97;78.77;102007.81;4878758;29;20060;-83
2022/11/14 09:23:31;;;;;;;76.72;43.00;;;;;;;13.02;77.86;102013.66;4879648;29;20164;-83
2022/11/14 09:26:04;;;;;;;73.70;42.65;;;;;;;12.76;77.88;101962.34;4880366;29;20064;-81
2022/11/14 09:28:35;;;;;;;63.92;38.20;;;;;;;13.20;76.77;102010.53;4882718;29;20566;-82
2022/11/14 09:31:07;;;;;;;64.82;37.35;;;;;;;12.72;76.46;101926.25;4877070;29;20048;-84
2022/11/14 09:33:34;;;;;;;69.50;41.15;;;;;;;13.14;76.39;101989.69;4877144;29;20064;-84
2022/11/14 09:36:06;;;;;;;64.32;38.75;;;;;;;13.34;76.02;102010.34;4875520;29;20582;-84
2022/11/14 09:38:33;;;;;;;60.35;37.13;;;;;;;13.05;75.82;101976.09;4878236;29;20089;-83
2022/11/14 09:41:07;;;;;;;59.42;37.45;;;;;;;13.26;75.76;102004.72;4876253;29;20068;-83
2022/11/14 09:43:46;;;;;;;57.17;37.47;;;;;;;13.33;75.49;102008.66;4874847;29;20470;-84
2022/11/14 09:46:46;;;;;;;59.00;37.90;;;;;;;13.20;75.46;101979.41;4878618;29;20207;-80
2022/11/14 09:49:37;;;;;;;62.80;39.10;;;;;;;13.40;75.54;101996.53;4883665;29;20066;-82
2022/11/14 09:52:20;;;;;;;64.97;39.38;;;;;;;13.50;75.74;101998.47;4895053;29;20341;-81
2022/11/14 09:55:11;;;;;;;59.75;38.13;;;;;;;13.56;75.66;101992.63;4892906;29;20052;-80
2022/11/14 09:57:43;;;;;;;61.38;38.50;;;;;;;13.54;75.99;101986.56;4892975;29;20640;-82
2022/11/14 10:00:21;;;;;;;63.00;37.92;;;;;;;13.74;75.32;101992.97;4891854;29;20176;-81
2022/11/14 10:03:13;;;;;;;63.20;37.20;;;;;;;13.76;74.50;101986.56;4893264;29;20505;-80
2022/11/14 10:05:58;;;;;;;55.70;34.67;;;;;;;12.78;74.93;101818.34;4895592;29;20063;-81
2022/11/14 10:08:36;;;;;;;49.92;31.60;;;;;;;13.79;72.79;101986.31;4896876;29;20484;-81
2022/11/14 10:11:42;;;;;;;51.95;33.30;;;;;;;13.84;73.44;101988.63;4894947;29;20657;-80
2022/11/14 10:14:27;;;;;;;60.47;34.03;;;;;;;13.86;73.87;101987.53;4893013;29;20478;-81
2022/11/14 10:17:21;;;;;;;58.80;35.67;;;;;;;13.94;73.80;101988.72;4895448;29;20505;-79
2022/11/14 10:20:17;;;;;;;58.72;35.28;;;;;;;13.95;73.44;101979.72;4893711;29;20666;-80
2022/11/14 10:23:29;;;;;;;55.10;35.30;;;;;;;13.93;73.21;101981.66;4897718;29;20573;-78
2022/11/14 10:26:16;;;;;;;52.90;31.73;;;;;;;13.96;72.01;101968.94;4875089;29;20454;-80
2022/11/14 10:29:04;;;;;;;52.13;33.22;;;;;;;13.56;72.47;101899.25;4894373;29;20138;-80
2022/11/14 10:32:01;;;;;;;53.83;35.03;;;;;;;13.97;73.03;101967.94;4894368;29;20051;-80
2022/11/14 10:34:38;;;;;;;257.08;132.90;;;;;;;13.82;74.47;101910.47;4892754;29;20228;-77
2022/11/14 10:37:21;;;;;;;44.97;29.48;;;;;;;14.17;71.21;101934.25;4893500;29;20055;-77
2022/11/14 10:39:56;;;;;;;43.30;28.15;;;;;;;14.21;71.02;101940.22;4886208;29;20096;-77
2022/11/14 10:42:38;;;;;;;43.00;27.33;;;;;;;13.95;70.18;101888.97;4886498;29;20066;-78
2022/11/14 10:45:20;;;;;;;41.63;25.83;;;;;;;14.30;69.39;101942.97;4876034;29;20097;-79
2022/11/14 10:47:56;;;;;;;44.88;29.08;;;;;;;14.41;69.90;101959.91;4894671;29;20505;-78
2022/11/14 10:50:50;;;;;;;46.67;27.65;;;;;;;14.43;70.13;101956.13;4856574;29;20052;-79
2022/11/14 10:53:28;;;;;;;52.03;32.88;;;;;;;14.47;69.74;101970.09;4853989;29;20252;-78
2022/11/14 10:55:58;;;;;;;56.17;34.38;;;;;;;14.43;69.73;101955.28;4885053;29;20376;-80
2022/11/14 10:58:30;;;;;;;54.38;31.20;;;;;;;14.26;70.32;101933.50;4903487;29;20086;-78
2022/11/14 11:01:36;;;;;;;53.00;31.52;;;;;;;14.30;69.85;101956.31;4887454;29;20142;-78
2022/11/14 11:04:22;;;;;;;43.08;26.95;;;;;;;14.21;69.08;101940.22;4819721;29;20065;-77
2022/11/14 11:06:52;;;;;;;40.22;26.13;;;;;;;14.32;68.42;101951.69;4833130;29;20060;-78
2022/11/14 11:12:35;;;;;;;43.20;28.40;;;;;;;14.09;69.49;101926.88;4822409;29;20063;-79
2022/11/14 11:15:17;;;;;;;53.55;29.42;;;;;;;13.84;70.75;101909.38;4821856;29;20300;-78
2022/11/14 11:17:55;;;;;;;;;;;;;;;14.02;71.17;101938.19;4849887;29;20132;-77
2022/11/14 11:20:25;;;;;;;51.47;30.30;;;;;;;13.62;70.21;101842.75;4837420;29;20614;-77
2022/11/14 11:23:02;;;;;;;48.65;30.80;;;;;;;13.69;70.71;101862.63;4845960;29;20187;-76
2022/11/14 11:25:32;;;;;;;48.00;30.25;;;;;;;13.99;71.12;101927.78;4827192;29;20061;-79
2022/11/14 11:28:18;;;;;;;49.00;28.92;;;;;;;13.81;70.69;101882.94;4827599;29;20068;-78
2022/11/14 11:30:57;;;;;;;55.25;29.63;;;;;;;14.28;70.62;101926.22;4839854;29;20532;-78
2022/11/14 11:33:25;;;;;;;57.70;32.67;;;;;;;14.33;70.31;101924.00;4846562;29;20530;-79